sensor_id;sensor_type;location;lat;lon;timestamp;temperature;humidity
4081;DHT22;2055;50.074;8.436;2024-01-30T00:01:57;1.00;99.90
4081;DHT22;2055;50.074;8.436;2024-01-30T00:04:23;1.00;99.90
4081;DHT22;2055;50.074;8.436;2024-01-30T00:06:48;1.00;99.90
4081;DHT22;2055;50.074;8.436;2024-01-30T00:09:14;1.10;99.90
4081;DHT22;2055;50.074;8.436;2024-01-30T00:11:40;1.30;1.00
4081;DHT22;2055;50.074;8.436;2024-01-30T00:14:06;1.30;99.90
4081;DHT22;2055;50.074;8.436;2024-01-30T00:16:31;1.20;99.90
4081;DHT22;2055;50.074;8.436;2024-01-30T00:18:57;1.10;99.90
4081;DHT22;2055;50.074;8.436;2024-01-30T00:21:23;1.10;99.90
4081;DHT22;2055;50.074;8.436;2024-01-30T00:23:49;1.20;99.90
4081;DHT22;2055;50.074;8.436;2024-01-30T00:26:15;1.40;99.90
4081;DHT22;2055;50.074;8.436;2024-01-30T00:28:41;1.30;99.90
4081;DHT22;2055;50.074;8.436;2024-01-30T00:31:07;1.20;99.90
4081;DHT22;2055;50.074;8.436;2024-01-30T00:33:32;1.10;99.90
4081;DHT22;2055;50.074;8.436;2024-01-30T00:35:58;1.10;99.90
4081;DHT22;2055;50.074;8.436;2024-01-30T00:38:24;1.10;99.90
4081;DHT22;2055;50.074;8.436;2024-01-30T00:40:49;1.20;99.90
4081;DHT22;2055;50.074;8.436;2024-01-30T00:43:15;1.30;99.90
4081;DHT22;2055;50.074;8.436;2024-01-30T00:45:43;1.40;99.90
4081;DHT22;2055;50.074;8.436;2024-01-30T00:48:09;1.50;99.90
4081;DHT22;2055;50.074;8.436;2024-01-30T00:50:34;1.40;99.90
4081;DHT22;2055;50.074;8.436;2024-01-30T00:53:00;1.20;99.90
4081;DHT22;2055;50.074;8.436;2024-01-30T00:55:25;1.30;99.90
4081;DHT22;2055;50.074;8.436;2024-01-30T00:57:51;1.30;99.90
4081;DHT22;2055;50.074;8.436;2024-01-30T01:00:16;1.30;99.90
4081;DHT22;2055;50.074;8.436;2024-01-30T01:02:43;1.60;99.90
4081;DHT22;2055;50.074;8.436;2024-01-30T01:05:08;1.50;99.90
4081;DHT22;2055;50.074;8.436;2024-01-30T01:07:34;1.60;99.90
4081;DHT22;2055;50.074;8.436;2024-01-30T01:10:00;1.60;99.90
4081;DHT22;2055;50.074;8.436;2024-01-30T01:12:25;1.50;99.90
4081;DHT22;2055;50.074;8.436;2024-01-30T01:14:51;1.30;99.90
4081;DHT22;2055;50.074;8.436;2024-01-30T01:17:16;1.10;99.90
4081;DHT22;2055;50.074;8.436;2024-01-30T01:19:43;1.20;99.90
4081;DHT22;2055;50.074;8.436;2024-01-30T01:22:09;0.90;99.90
4081;DHT22;2055;50.074;8.436;2024-01-30T01:24:35;1.10;99.90
4081;DHT22;2055;50.074;8.436;2024-01-30T01:27:01;0.90;99.90
4081;DHT22;2055;50.074;8.436;2024-01-30T01:29:26;1.00;99.90
4081;DHT22;2055;50.074;8.436;2024-01-30T01:31:57;1.10;99.90
4081;DHT22;2055;50.074;8.436;2024-01-30T01:34:22;1.30;1.00
4081;DHT22;2055;50.074;8.436;2024-01-30T01:36:49;1.30;1.00
4081;DHT22;2055;50.074;8.436;2024-01-30T01:39:15;1.30;99.90
4081;DHT22;2055;50.074;8.436;2024-01-30T01:41:41;1.20;99.90
4081;DHT22;2055;50.074;8.436;2024-01-30T01:44:07;0.90;99.90
4081;DHT22;2055;50.074;8.436;2024-01-30T01:46:33;0.80;99.90
4081;DHT22;2055;50.074;8.436;2024-01-30T01:49:00;0.60;99.90
4081;DHT22;2055;50.074;8.436;2024-01-30T01:51:27;0.50;99.90
4081;DHT22;2055;50.074;8.436;2024-01-30T01:53:55;0.70;99.90
4081;DHT22;2055;50.074;8.436;2024-01-30T01:56:23;0.70;99.90
4081;DHT22;2055;50.074;8.436;2024-01-30T01:58:49;0.80;99.90
4081;DHT22;2055;50.074;8.436;2024-01-30T02:01:19;0.70;99.90
4081;DHT22;2055;50.074;8.436;2024-01-30T02:03:46;0.60;99.90
4081;DHT22;2055;50.074;8.436;2024-01-30T02:06:12;0.50;99.90
4081;DHT22;2055;50.074;8.436;2024-01-30T02:08:39;0.50;99.90
4081;DHT22;2055;50.074;8.436;2024-01-30T02:11:05;0.40;99.90
4081;DHT22;2055;50.074;8.436;2024-01-30T02:13:30;0.50;99.90
4081;DHT22;2055;50.074;8.436;2024-01-30T02:15:56;0.50;99.90
4081;DHT22;2055;50.074;8.436;2024-01-30T02:18:22;0.40;99.90
4081;DHT22;2055;50.074;8.436;2024-01-30T02:20:48;0.30;99.90
4081;DHT22;2055;50.074;8.436;2024-01-30T02:23:15;0.30;99.90
4081;DHT22;2055;50.074;8.436;2024-01-30T02:25:41;0.20;99.90
4081;DHT22;2055;50.074;8.436;2024-01-30T02:28:13;0.20;99.90
4081;DHT22;2055;50.074;8.436;2024-01-30T02:30:47;0.10;99.90
4081;DHT22;2055;50.074;8.436;2024-01-30T02:33:13;0.10;99.90
4081;DHT22;2055;50.074;8.436;2024-01-30T02:35:39;0.00;99.90
4081;DHT22;2055;50.074;8.436;2024-01-30T02:38:04;0.30;99.90
4081;DHT22;2055;50.074;8.436;2024-01-30T02:40:30;0.20;99.90
4081;DHT22;2055;50.074;8.436;2024-01-30T02:42:57;0.20;99.90
4081;DHT22;2055;50.074;8.436;2024-01-30T02:45:23;1.10;99.90
4081;DHT22;2055;50.074;8.436;2024-01-30T02:47:48;0.80;99.90
4081;DHT22;2055;50.074;8.436;2024-01-30T02:50:14;0.10;99.90
4081;DHT22;2055;50.074;8.436;2024-01-30T02:52:40;0.30;99.90
4081;DHT22;2055;50.074;8.436;2024-01-30T02:55:06;0.30;99.90
4081;DHT22;2055;50.074;8.436;2024-01-30T02:57:32;0.70;1.00
4081;DHT22;2055;50.074;8.436;2024-01-30T02:59:57;0.60;99.90
4081;DHT22;2055;50.074;8.436;2024-01-30T03:02:23;0.80;1.00
4081;DHT22;2055;50.074;8.436;2024-01-30T03:04:49;0.60;99.90
4081;DHT22;2055;50.074;8.436;2024-01-30T03:07:14;0.50;99.90
4081;DHT22;2055;50.074;8.436;2024-01-30T03:09:41;0.60;99.90
4081;DHT22;2055;50.074;8.436;2024-01-30T03:12:10;0.50;99.90
4081;DHT22;2055;50.074;8.436;2024-01-30T03:14:36;0.40;99.90
4081;DHT22;2055;50.074;8.436;2024-01-30T03:17:01;0.40;99.90
4081;DHT22;2055;50.074;8.436;2024-01-30T03:19:28;0.40;99.90
4081;DHT22;2055;50.074;8.436;2024-01-30T03:21:53;0.30;99.90
4081;DHT22;2055;50.074;8.436;2024-01-30T03:24:19;0.40;99.90
4081;DHT22;2055;50.074;8.436;2024-01-30T03:26:44;0.20;99.90
4081;DHT22;2055;50.074;8.436;2024-01-30T03:29:10;0.30;99.90
4081;DHT22;2055;50.074;8.436;2024-01-30T03:31:35;0.30;99.90
4081;DHT22;2055;50.074;8.436;2024-01-30T03:34:01;0.40;99.90
4081;DHT22;2055;50.074;8.436;2024-01-30T03:36:27;0.40;99.90
4081;DHT22;2055;50.074;8.436;2024-01-30T03:38:53;0.30;99.90
4081;DHT22;2055;50.074;8.436;2024-01-30T03:41:19;0.50;99.90
4081;DHT22;2055;50.074;8.436;2024-01-30T03:43:45;0.40;99.90
4081;DHT22;2055;50.074;8.436;2024-01-30T03:46:12;0.40;99.90
4081;DHT22;2055;50.074;8.436;2024-01-30T03:48:38;0.50;99.90
4081;DHT22;2055;50.074;8.436;2024-01-30T03:51:04;0.30;99.90
4081;DHT22;2055;50.074;8.436;2024-01-30T03:53:30;0.20;99.90
4081;DHT22;2055;50.074;8.436;2024-01-30T03:55:55;0.20;99.90
4081;DHT22;2055;50.074;8.436;2024-01-30T03:58:21;0.20;99.90
4081;DHT22;2055;50.074;8.436;2024-01-30T04:00:47;0.30;99.90
4081;DHT22;2055;50.074;8.436;2024-01-30T04:03:14;0.00;99.90
4081;DHT22;2055;50.074;8.436;2024-01-30T04:05:41;0.00;99.90
4081;DHT22;2055;50.074;8.436;2024-01-30T04:08:07;0.10;99.90
4081;DHT22;2055;50.074;8.436;2024-01-30T04:10:33;0.30;99.90
4081;DHT22;2055;50.074;8.436;2024-01-30T04:12:58;0.30;99.90
4081;DHT22;2055;50.074;8.436;2024-01-30T04:15:25;0.20;99.90
4081;DHT22;2055;50.074;8.436;2024-01-30T04:17:51;0.30;99.90
4081;DHT22;2055;50.074;8.436;2024-01-30T04:20:16;0.40;99.90
4081;DHT22;2055;50.074;8.436;2024-01-30T04:22:45;0.30;99.90
4081;DHT22;2055;50.074;8.436;2024-01-30T04:25:12;0.20;99.90
4081;DHT22;2055;50.074;8.436;2024-01-30T04:27:38;0.50;99.90
4081;DHT22;2055;50.074;8.436;2024-01-30T04:30:04;0.20;99.90
4081;DHT22;2055;50.074;8.436;2024-01-30T04:32:30;0.10;99.90
4081;DHT22;2055;50.074;8.436;2024-01-30T04:34:56;0.20;99.90
4081;DHT22;2055;50.074;8.436;2024-01-30T04:37:21;0.10;99.90
4081;DHT22;2055;50.074;8.436;2024-01-30T04:39:47;0.10;99.90
4081;DHT22;2055;50.074;8.436;2024-01-30T04:42:12;0.20;99.90
4081;DHT22;2055;50.074;8.436;2024-01-30T04:44:38;0.20;99.90
4081;DHT22;2055;50.074;8.436;2024-01-30T04:47:04;0.00;99.90
4081;DHT22;2055;50.074;8.436;2024-01-30T04:49:31;0.00;99.90
4081;DHT22;2055;50.074;8.436;2024-01-30T04:51:57;0.00;99.90
4081;DHT22;2055;50.074;8.436;2024-01-30T04:54:23;0.00;99.90
4081;DHT22;2055;50.074;8.436;2024-01-30T04:56:48;0.00;99.90
4081;DHT22;2055;50.074;8.436;2024-01-30T04:59:14;0.00;99.90
4081;DHT22;2055;50.074;8.436;2024-01-30T05:01:39;0.20;99.90
4081;DHT22;2055;50.074;8.436;2024-01-30T05:04:09;0.30;99.90
4081;DHT22;2055;50.074;8.436;2024-01-30T05:06:35;0.40;1.00
4081;DHT22;2055;50.074;8.436;2024-01-30T05:09:00;0.30;99.90
4081;DHT22;2055;50.074;8.436;2024-01-30T05:11:26;0.10;99.90
4081;DHT22;2055;50.074;8.436;2024-01-30T05:13:51;0.00;99.90
4081;DHT22;2055;50.074;8.436;2024-01-30T05:16:17;0.10;99.90
4081;DHT22;2055;50.074;8.436;2024-01-30T05:18:43;0.00;99.90
4081;DHT22;2055;50.074;8.436;2024-01-30T05:21:09;0.00;99.90
4081;DHT22;2055;50.074;8.436;2024-01-30T05:23:35;0.20;99.90
4081;DHT22;2055;50.074;8.436;2024-01-30T05:26:00;0.20;99.90
4081;DHT22;2055;50.074;8.436;2024-01-30T05:28:26;0.20;99.90
4081;DHT22;2055;50.074;8.436;2024-01-30T05:30:52;0.20;99.90
4081;DHT22;2055;50.074;8.436;2024-01-30T05:33:17;0.00;99.90
4081;DHT22;2055;50.074;8.436;2024-01-30T05:35:43;0.00;99.90
4081;DHT22;2055;50.074;8.436;2024-01-30T05:38:10;0.10;99.90
4081;DHT22;2055;50.074;8.436;2024-01-30T05:40:36;0.20;99.90
4081;DHT22;2055;50.074;8.436;2024-01-30T05:43:02;-0.10;99.90
4081;DHT22;2055;50.074;8.436;2024-01-30T05:45:28;-0.10;99.90
4081;DHT22;2055;50.074;8.436;2024-01-30T05:47:53;-0.20;99.90
4081;DHT22;2055;50.074;8.436;2024-01-30T05:50:19;-0.20;99.90
4081;DHT22;2055;50.074;8.436;2024-01-30T05:52:45;-0.10;99.90
4081;DHT22;2055;50.074;8.436;2024-01-30T05:55:12;-0.20;99.90
4081;DHT22;2055;50.074;8.436;2024-01-30T05:57:38;-0.20;99.90
4081;DHT22;2055;50.074;8.436;2024-01-30T06:00:04;-0.20;99.90
4081;DHT22;2055;50.074;8.436;2024-01-30T06:02:31;-0.30;99.90
4081;DHT22;2055;50.074;8.436;2024-01-30T06:04:56;-0.30;99.90
4081;DHT22;2055;50.074;8.436;2024-01-30T06:07:22;-0.20;99.90
4081;DHT22;2055;50.074;8.436;2024-01-30T06:09:47;-0.10;99.90
4081;DHT22;2055;50.074;8.436;2024-01-30T06:12:13;-0.10;99.90
4081;DHT22;2055;50.074;8.436;2024-01-30T06:14:39;-0.20;99.90
4081;DHT22;2055;50.074;8.436;2024-01-30T06:17:04;-0.30;99.90
4081;DHT22;2055;50.074;8.436;2024-01-30T06:19:30;-0.40;99.90
4081;DHT22;2055;50.074;8.436;2024-01-30T06:21:57;-0.30;99.90
4081;DHT22;2055;50.074;8.436;2024-01-30T06:24:23;-0.30;99.90
4081;DHT22;2055;50.074;8.436;2024-01-30T06:26:48;-0.20;99.90
4081;DHT22;2055;50.074;8.436;2024-01-30T06:29:14;0.30;1.00
4081;DHT22;2055;50.074;8.436;2024-01-30T06:31:41;0.30;1.00
4081;DHT22;2055;50.074;8.436;2024-01-30T06:34:07;0.60;1.00
4081;DHT22;2055;50.074;8.436;2024-01-30T06:36:33;0.70;1.00
4081;DHT22;2055;50.074;8.436;2024-01-30T06:38:58;0.70;1.00
4081;DHT22;2055;50.074;8.436;2024-01-30T06:41:24;0.60;1.00
4081;DHT22;2055;50.074;8.436;2024-01-30T06:43:50;0.50;1.00
4081;DHT22;2055;50.074;8.436;2024-01-30T06:46:15;0.50;99.90
4081;DHT22;2055;50.074;8.436;2024-01-30T06:48:41;0.30;99.90
4081;DHT22;2055;50.074;8.436;2024-01-30T06:51:06;0.30;99.90
4081;DHT22;2055;50.074;8.436;2024-01-30T06:53:32;0.30;99.90
4081;DHT22;2055;50.074;8.436;2024-01-30T06:55:57;0.30;99.90
4081;DHT22;2055;50.074;8.436;2024-01-30T06:58:23;0.20;99.90
4081;DHT22;2055;50.074;8.436;2024-01-30T07:00:48;0.10;99.90
4081;DHT22;2055;50.074;8.436;2024-01-30T07:03:14;0.00;99.90
4081;DHT22;2055;50.074;8.436;2024-01-30T07:05:39;0.00;99.90
4081;DHT22;2055;50.074;8.436;2024-01-30T07:08:05;-0.10;99.90
4081;DHT22;2055;50.074;8.436;2024-01-30T07:10:31;-0.10;99.90
4081;DHT22;2055;50.074;8.436;2024-01-30T07:12:56;0.10;99.90
4081;DHT22;2055;50.074;8.436;2024-01-30T07:15:22;0.20;1.00
4081;DHT22;2055;50.074;8.436;2024-01-30T07:17:48;0.30;1.00
4081;DHT22;2055;50.074;8.436;2024-01-30T07:20:13;0.40;1.00
4081;DHT22;2055;50.074;8.436;2024-01-30T07:22:40;0.40;1.00
4081;DHT22;2055;50.074;8.436;2024-01-30T07:25:06;0.60;1.00
4081;DHT22;2055;50.074;8.436;2024-01-30T07:27:31;0.70;1.00
4081;DHT22;2055;50.074;8.436;2024-01-30T07:29:57;0.80;1.00
4081;DHT22;2055;50.074;8.436;2024-01-30T07:32:22;0.80;1.00
4081;DHT22;2055;50.074;8.436;2024-01-30T07:34:49;0.80;1.00
4081;DHT22;2055;50.074;8.436;2024-01-30T07:37:14;1.10;1.00
4081;DHT22;2055;50.074;8.436;2024-01-30T07:39:41;1.20;1.00
4081;DHT22;2055;50.074;8.436;2024-01-30T07:42:07;1.20;20.40
4081;DHT22;2055;50.074;8.436;2024-01-30T07:44:33;1.20;1.00
4081;DHT22;2055;50.074;8.436;2024-01-30T07:46:59;1.20;1.00
4081;DHT22;2055;50.074;8.436;2024-01-30T07:49:25;1.30;1.00
4081;DHT22;2055;50.074;8.436;2024-01-30T07:51:50;1.40;1.00
4081;DHT22;2055;50.074;8.436;2024-01-30T07:54:16;1.40;1.00
4081;DHT22;2055;50.074;8.436;2024-01-30T07:56:41;1.60;1.00
4081;DHT22;2055;50.074;8.436;2024-01-30T07:59:10;3.20;1.00
4081;DHT22;2055;50.074;8.436;2024-01-30T08:01:37;2.10;1.00
4081;DHT22;2055;50.074;8.436;2024-01-30T08:04:02;2.10;1.00
4081;DHT22;2055;50.074;8.436;2024-01-30T08:06:28;2.20;1.00
4081;DHT22;2055;50.074;8.436;2024-01-30T08:08:53;2.30;1.00
4081;DHT22;2055;50.074;8.436;2024-01-30T08:11:22;2.60;1.00
4081;DHT22;2055;50.074;8.436;2024-01-30T08:13:52;2.40;1.00
4081;DHT22;2055;50.074;8.436;2024-01-30T08:16:17;2.50;1.00
4081;DHT22;2055;50.074;8.436;2024-01-30T08:18:43;2.70;1.00
4081;DHT22;2055;50.074;8.436;2024-01-30T08:21:09;2.80;1.00
4081;DHT22;2055;50.074;8.436;2024-01-30T08:23:35;2.90;1.00
4081;DHT22;2055;50.074;8.436;2024-01-30T08:26:00;3.00;1.00
4081;DHT22;2055;50.074;8.436;2024-01-30T08:28:26;3.10;1.00
4081;DHT22;2055;50.074;8.436;2024-01-30T08:30:52;3.20;1.00
4081;DHT22;2055;50.074;8.436;2024-01-30T08:33:17;3.30;1.00
4081;DHT22;2055;50.074;8.436;2024-01-30T08:35:43;3.30;1.00
4081;DHT22;2055;50.074;8.436;2024-01-30T08:38:08;3.40;1.00
4081;DHT22;2055;50.074;8.436;2024-01-30T08:40:34;3.40;1.00
4081;DHT22;2055;50.074;8.436;2024-01-30T08:43:00;3.60;1.00
4081;DHT22;2055;50.074;8.436;2024-01-30T08:45:26;3.40;1.00
4081;DHT22;2055;50.074;8.436;2024-01-30T08:47:51;3.50;1.00
4081;DHT22;2055;50.074;8.436;2024-01-30T08:50:17;3.60;1.00
4081;DHT22;2055;50.074;8.436;2024-01-30T08:52:43;3.60;1.00
4081;DHT22;2055;50.074;8.436;2024-01-30T08:55:08;3.50;1.00
4081;DHT22;2055;50.074;8.436;2024-01-30T08:57:34;3.70;1.00
4081;DHT22;2055;50.074;8.436;2024-01-30T09:00:00;3.70;1.00
4081;DHT22;2055;50.074;8.436;2024-01-30T09:02:26;3.70;1.00
4081;DHT22;2055;50.074;8.436;2024-01-30T09:04:51;3.70;1.00
4081;DHT22;2055;50.074;8.436;2024-01-30T09:07:17;3.70;1.00
4081;DHT22;2055;50.074;8.436;2024-01-30T09:09:42;3.80;1.00
4081;DHT22;2055;50.074;8.436;2024-01-30T09:12:08;3.90;1.00
4081;DHT22;2055;50.074;8.436;2024-01-30T09:14:35;3.80;1.00
4081;DHT22;2055;50.074;8.436;2024-01-30T09:17:01;3.60;1.00
4081;DHT22;2055;50.074;8.436;2024-01-30T09:19:26;3.50;1.00
4081;DHT22;2055;50.074;8.436;2024-01-30T09:21:52;3.60;1.00
4081;DHT22;2055;50.074;8.436;2024-01-30T09:24:17;3.80;1.00
4081;DHT22;2055;50.074;8.436;2024-01-30T09:26:43;4.10;1.00
4081;DHT22;2055;50.074;8.436;2024-01-30T09:29:08;4.20;1.00
4081;DHT22;2055;50.074;8.436;2024-01-30T09:31:34;4.40;1.00
4081;DHT22;2055;50.074;8.436;2024-01-30T09:33:59;4.20;1.00
4081;DHT22;2055;50.074;8.436;2024-01-30T09:36:25;4.10;1.00
4081;DHT22;2055;50.074;8.436;2024-01-30T09:38:51;4.10;1.00
4081;DHT22;2055;50.074;8.436;2024-01-30T09:41:18;4.30;1.00
4081;DHT22;2055;50.074;8.436;2024-01-30T09:43:48;4.20;1.00
4081;DHT22;2055;50.074;8.436;2024-01-30T09:46:15;4.20;1.00
4081;DHT22;2055;50.074;8.436;2024-01-30T09:48:42;4.30;1.00
4081;DHT22;2055;50.074;8.436;2024-01-30T09:51:09;4.20;1.00
4081;DHT22;2055;50.074;8.436;2024-01-30T09:53:36;4.40;1.00
4081;DHT22;2055;50.074;8.436;2024-01-30T09:56:02;4.60;1.00
4081;DHT22;2055;50.074;8.436;2024-01-30T09:58:28;4.70;1.00
4081;DHT22;2055;50.074;8.436;2024-01-30T10:00:54;4.60;99.90
4081;DHT22;2055;50.074;8.436;2024-01-30T10:03:19;4.60;99.90
4081;DHT22;2055;50.074;8.436;2024-01-30T10:05:51;4.50;99.90
4081;DHT22;2055;50.074;8.436;2024-01-30T10:08:18;4.70;99.90
4081;DHT22;2055;50.074;8.436;2024-01-30T10:10:48;4.80;99.90
4081;DHT22;2055;50.074;8.436;2024-01-30T10:13:15;4.80;99.90
4081;DHT22;2055;50.074;8.436;2024-01-30T10:15:41;4.90;99.90
4081;DHT22;2055;50.074;8.436;2024-01-30T10:18:08;4.90;99.90
4081;DHT22;2055;50.074;8.436;2024-01-30T10:20:34;4.70;99.90
4081;DHT22;2055;50.074;8.436;2024-01-30T10:22:59;4.90;99.90
4081;DHT22;2055;50.074;8.436;2024-01-30T10:25:25;5.10;99.90
4081;DHT22;2055;50.074;8.436;2024-01-30T10:27:54;5.10;99.90
4081;DHT22;2055;50.074;8.436;2024-01-30T10:30:23;5.00;99.90
4081;DHT22;2055;50.074;8.436;2024-01-30T10:32:49;5.00;99.90
4081;DHT22;2055;50.074;8.436;2024-01-30T10:35:15;5.20;99.90
4081;DHT22;2055;50.074;8.436;2024-01-30T10:37:47;5.40;99.90
4081;DHT22;2055;50.074;8.436;2024-01-30T10:40:14;5.70;99.90
4081;DHT22;2055;50.074;8.436;2024-01-30T10:42:44;6.00;99.90
4081;DHT22;2055;50.074;8.436;2024-01-30T10:45:12;6.30;99.90
4081;DHT22;2055;50.074;8.436;2024-01-30T10:47:40;6.20;99.90
4081;DHT22;2055;50.074;8.436;2024-01-30T10:50:08;6.20;99.90
4081;DHT22;2055;50.074;8.436;2024-01-30T10:52:34;5.80;99.90
4081;DHT22;2055;50.074;8.436;2024-01-30T10:55:00;5.90;99.90
4081;DHT22;2055;50.074;8.436;2024-01-30T10:57:27;5.90;99.90
4081;DHT22;2055;50.074;8.436;2024-01-30T10:59:57;6.20;99.90
4081;DHT22;2055;50.074;8.436;2024-01-30T11:02:24;6.40;99.90
4081;DHT22;2055;50.074;8.436;2024-01-30T11:04:54;6.60;99.90
4081;DHT22;2055;50.074;8.436;2024-01-30T11:07:25;6.50;99.90
4081;DHT22;2055;50.074;8.436;2024-01-30T11:12:26;6.80;99.90
4081;DHT22;2055;50.074;8.436;2024-01-30T11:15:05;6.70;99.90
4081;DHT22;2055;50.074;8.436;2024-01-30T11:20:16;6.80;99.90
4081;DHT22;2055;50.074;8.436;2024-01-30T11:22:44;6.90;99.90
4081;DHT22;2055;50.074;8.436;2024-01-30T11:25:14;7.70;99.90
4081;DHT22;2055;50.074;8.436;2024-01-30T11:27:41;7.70;99.90
4081;DHT22;2055;50.074;8.436;2024-01-30T11:30:08;7.50;99.90
4081;DHT22;2055;50.074;8.436;2024-01-30T11:32:33;7.60;99.90
4081;DHT22;2055;50.074;8.436;2024-01-30T11:34:59;7.80;99.90
4081;DHT22;2055;50.074;8.436;2024-01-30T11:37:25;8.80;99.90
4081;DHT22;2055;50.074;8.436;2024-01-30T11:39:54;9.00;99.90
4081;DHT22;2055;50.074;8.436;2024-01-30T11:42:21;8.90;99.90
4081;DHT22;2055;50.074;8.436;2024-01-30T11:44:49;9.40;99.90
4081;DHT22;2055;50.074;8.436;2024-01-30T11:47:15;8.90;99.90
4081;DHT22;2055;50.074;8.436;2024-01-30T11:49:41;8.80;99.90
4081;DHT22;2055;50.074;8.436;2024-01-30T11:52:07;8.40;99.90
4081;DHT22;2055;50.074;8.436;2024-01-30T11:54:32;8.40;99.90
4081;DHT22;2055;50.074;8.436;2024-01-30T11:56:58;8.30;99.90
4081;DHT22;2055;50.074;8.436;2024-01-30T11:59:24;7.70;99.90
4081;DHT22;2055;50.074;8.436;2024-01-30T12:01:51;7.80;99.90
4081;DHT22;2055;50.074;8.436;2024-01-30T12:04:17;7.50;99.90
4081;DHT22;2055;50.074;8.436;2024-01-30T12:06:43;7.20;99.90
4081;DHT22;2055;50.074;8.436;2024-01-30T12:09:09;7.20;99.90
4081;DHT22;2055;50.074;8.436;2024-01-30T12:11:45;7.40;99.90
4081;DHT22;2055;50.074;8.436;2024-01-30T12:14:12;7.40;99.90
4081;DHT22;2055;50.074;8.436;2024-01-30T12:16:37;7.60;99.90
4081;DHT22;2055;50.074;8.436;2024-01-30T12:19:03;7.70;99.90
4081;DHT22;2055;50.074;8.436;2024-01-30T12:21:29;8.00;99.90
4081;DHT22;2055;50.074;8.436;2024-01-30T12:23:59;8.10;99.90
4081;DHT22;2055;50.074;8.436;2024-01-30T12:26:26;8.20;99.90
4081;DHT22;2055;50.074;8.436;2024-01-30T12:28:55;8.20;99.90
4081;DHT22;2055;50.074;8.436;2024-01-30T12:31:32;8.50;99.90
4081;DHT22;2055;50.074;8.436;2024-01-30T12:33:59;8.80;99.90
4081;DHT22;2055;50.074;8.436;2024-01-30T12:36:25;8.50;99.90
4081;DHT22;2055;50.074;8.436;2024-01-30T12:38:51;8.60;99.90
4081;DHT22;2055;50.074;8.436;2024-01-30T12:41:17;8.80;99.90
4081;DHT22;2055;50.074;8.436;2024-01-30T12:43:43;8.90;99.90
4081;DHT22;2055;50.074;8.436;2024-01-30T12:46:09;9.10;99.90
4081;DHT22;2055;50.074;8.436;2024-01-30T12:48:34;9.10;99.90
4081;DHT22;2055;50.074;8.436;2024-01-30T12:51:00;9.50;99.90
4081;DHT22;2055;50.074;8.436;2024-01-30T12:53:26;9.60;99.90
4081;DHT22;2055;50.074;8.436;2024-01-30T12:55:51;9.60;99.90
4081;DHT22;2055;50.074;8.436;2024-01-30T12:58:17;9.70;99.90
4081;DHT22;2055;50.074;8.436;2024-01-30T13:00:43;11.40;99.90
4081;DHT22;2055;50.074;8.436;2024-01-30T13:03:09;10.20;99.90
4081;DHT22;2055;50.074;8.436;2024-01-30T13:05:35;10.10;99.90
4081;DHT22;2055;50.074;8.436;2024-01-30T13:08:01;10.00;99.90
4081;DHT22;2055;50.074;8.436;2024-01-30T13:10:26;9.60;99.90
4081;DHT22;2055;50.074;8.436;2024-01-30T13:12:52;9.60;99.90
4081;DHT22;2055;50.074;8.436;2024-01-30T13:15:18;9.80;99.90
4081;DHT22;2055;50.074;8.436;2024-01-30T13:17:44;9.90;99.90
4081;DHT22;2055;50.074;8.436;2024-01-30T13:20:12;9.40;99.90
4081;DHT22;2055;50.074;8.436;2024-01-30T13:22:39;9.50;99.90
4081;DHT22;2055;50.074;8.436;2024-01-30T13:25:05;9.20;99.90
4081;DHT22;2055;50.074;8.436;2024-01-30T13:27:31;8.90;99.90
4081;DHT22;2055;50.074;8.436;2024-01-30T13:29:56;11.10;99.90
4081;DHT22;2055;50.074;8.436;2024-01-30T13:32:22;12.10;99.90
4081;DHT22;2055;50.074;8.436;2024-01-30T13:34:47;12.50;99.90
4081;DHT22;2055;50.074;8.436;2024-01-30T13:37:13;8.90;99.90
4081;DHT22;2055;50.074;8.436;2024-01-30T13:39:38;9.20;99.90
4081;DHT22;2055;50.074;8.436;2024-01-30T13:42:04;12.90;99.90
4081;DHT22;2055;50.074;8.436;2024-01-30T13:44:30;11.40;99.90
4081;DHT22;2055;50.074;8.436;2024-01-30T13:46:55;9.60;99.90
4081;DHT22;2055;50.074;8.436;2024-01-30T13:49:21;9.60;99.90
4081;DHT22;2055;50.074;8.436;2024-01-30T13:51:47;9.90;99.90
4081;DHT22;2055;50.074;8.436;2024-01-30T13:54:12;9.90;99.90
4081;DHT22;2055;50.074;8.436;2024-01-30T13:56:38;10.20;99.90
4081;DHT22;2055;50.074;8.436;2024-01-30T13:59:04;10.00;99.90
4081;DHT22;2055;50.074;8.436;2024-01-30T14:01:31;9.80;99.90
4081;DHT22;2055;50.074;8.436;2024-01-30T14:03:57;12.50;99.90
4081;DHT22;2055;50.074;8.436;2024-01-30T14:06:22;12.70;99.90
4081;DHT22;2055;50.074;8.436;2024-01-30T14:08:48;9.40;99.90
4081;DHT22;2055;50.074;8.436;2024-01-30T14:11:13;9.30;99.90
4081;DHT22;2055;50.074;8.436;2024-01-30T14:13:39;9.10;99.90
4081;DHT22;2055;50.074;8.436;2024-01-30T14:16:05;8.90;99.90
4081;DHT22;2055;50.074;8.436;2024-01-30T14:18:31;8.80;99.90
4081;DHT22;2055;50.074;8.436;2024-01-30T14:20:56;8.30;99.90
4081;DHT22;2055;50.074;8.436;2024-01-30T14:23:22;8.40;99.90
4081;DHT22;2055;50.074;8.436;2024-01-30T14:25:48;8.20;99.90
4081;DHT22;2055;50.074;8.436;2024-01-30T14:28:14;8.10;99.90
4081;DHT22;2055;50.074;8.436;2024-01-30T14:30:39;8.10;99.90
4081;DHT22;2055;50.074;8.436;2024-01-30T14:33:05;7.90;99.90
4081;DHT22;2055;50.074;8.436;2024-01-30T14:35:32;8.00;99.90
4081;DHT22;2055;50.074;8.436;2024-01-30T14:37:59;7.90;99.90
4081;DHT22;2055;50.074;8.436;2024-01-30T14:40:24;7.90;99.90
4081;DHT22;2055;50.074;8.436;2024-01-30T14:42:50;7.80;99.90
4081;DHT22;2055;50.074;8.436;2024-01-30T14:45:15;7.90;99.90
4081;DHT22;2055;50.074;8.436;2024-01-30T14:47:41;7.70;99.90
4081;DHT22;2055;50.074;8.436;2024-01-30T14:50:07;7.90;99.90
4081;DHT22;2055;50.074;8.436;2024-01-30T14:52:33;7.90;99.90
4081;DHT22;2055;50.074;8.436;2024-01-30T14:54:59;7.90;99.90
4081;DHT22;2055;50.074;8.436;2024-01-30T14:57:25;7.90;99.90
4081;DHT22;2055;50.074;8.436;2024-01-30T14:59:50;7.90;99.90
4081;DHT22;2055;50.074;8.436;2024-01-30T15:02:16;7.80;99.90
4081;DHT22;2055;50.074;8.436;2024-01-30T15:04:41;7.80;99.90
4081;DHT22;2055;50.074;8.436;2024-01-30T15:07:07;7.70;99.90
4081;DHT22;2055;50.074;8.436;2024-01-30T15:09:33;7.60;99.90
4081;DHT22;2055;50.074;8.436;2024-01-30T15:11:59;7.80;99.90
4081;DHT22;2055;50.074;8.436;2024-01-30T15:14:24;8.80;99.90
4081;DHT22;2055;50.074;8.436;2024-01-30T15:16:50;7.70;99.90
4081;DHT22;2055;50.074;8.436;2024-01-30T15:19:15;7.70;99.90
4081;DHT22;2055;50.074;8.436;2024-01-30T15:21:41;7.80;99.90
4081;DHT22;2055;50.074;8.436;2024-01-30T15:24:07;7.80;99.90
4081;DHT22;2055;50.074;8.436;2024-01-30T15:26:32;7.80;99.90
4081;DHT22;2055;50.074;8.436;2024-01-30T15:28:58;7.80;99.90
4081;DHT22;2055;50.074;8.436;2024-01-30T15:31:23;7.80;99.90
4081;DHT22;2055;50.074;8.436;2024-01-30T15:33:49;7.80;99.90
4081;DHT22;2055;50.074;8.436;2024-01-30T15:36:14;7.70;99.90
4081;DHT22;2055;50.074;8.436;2024-01-30T15:38:40;7.80;99.90
4081;DHT22;2055;50.074;8.436;2024-01-30T15:41:06;7.90;99.90
4081;DHT22;2055;50.074;8.436;2024-01-30T15:43:32;7.90;99.90
4081;DHT22;2055;50.074;8.436;2024-01-30T15:46:00;7.90;99.90
4081;DHT22;2055;50.074;8.436;2024-01-30T15:48:27;7.80;99.90
4081;DHT22;2055;50.074;8.436;2024-01-30T15:50:52;7.80;99.90
4081;DHT22;2055;50.074;8.436;2024-01-30T15:53:20;7.80;99.90
4081;DHT22;2055;50.074;8.436;2024-01-30T15:55:46;7.80;99.90
4081;DHT22;2055;50.074;8.436;2024-01-30T15:58:12;8.90;99.90
4081;DHT22;2055;50.074;8.436;2024-01-30T16:00:38;7.60;99.90
4081;DHT22;2055;50.074;8.436;2024-01-30T16:03:04;7.50;99.90
4081;DHT22;2055;50.074;8.436;2024-01-30T16:05:30;7.50;99.90
4081;DHT22;2055;50.074;8.436;2024-01-30T16:07:55;7.40;99.90
4081;DHT22;2055;50.074;8.436;2024-01-30T16:10:21;7.40;99.90
4081;DHT22;2055;50.074;8.436;2024-01-30T16:12:46;9.30;99.90
4081;DHT22;2055;50.074;8.436;2024-01-30T16:15:13;7.30;99.90
4081;DHT22;2055;50.074;8.436;2024-01-30T16:17:39;7.30;99.90